Time;durP1;ratioP1;P1;durP2;ratioP2;P2;SDS_P1;SDS_P2;PMS_P1;PMS_P2;Temp;Humidity;BMP_temperature;BMP_pressure;BME280_temperature;BME280_humidity;BME280_pressure;Samples;Min_cycle;Max_cycle;Signal;HPM_P1;HPM_P2
2021/09/25 00:02:20;;;;;;;;;15.75;14.50;;;;;18.86;59.64;101367.72;5059004;28;46288;-74
2021/09/25 00:04:46;;;;;;;;;15.25;13.75;;;;;18.86;59.77;101370.34;5058858;28;45385;-75
2021/09/25 00:07:12;;;;;;;;;17.25;16.50;;;;;18.84;60.00;101369.44;5058821;28;45314;-74
2021/09/25 00:09:40;;;;;;;;;21.25;18.00;;;;;18.81;60.14;101360.63;5058644;28;45271;-75
2021/09/25 00:12:10;;;;;;;;;14.00;13.25;;;;;18.80;60.44;101359.75;5058355;28;45383;-74
2021/09/25 00:14:40;;;;;;;;;14.25;14.25;;;;;18.81;60.41;101368.50;5058592;28;45337;-75
2021/09/25 00:17:07;;;;;;;;;18.00;16.25;;;;;18.83;60.31;101357.19;5063524;28;45504;-74
2021/09/25 00:19:33;;;;;;;;;16.75;15.50;;;;;18.80;60.00;101348.34;5064747;28;45196;-74
2021/09/25 00:21:59;;;;;;;;;16.50;15.50;;;;;18.82;60.02;101354.53;5059176;28;45434;-74
2021/09/25 00:24:25;;;;;;;;;17.75;16.00;;;;;18.77;60.45;101357.06;5058563;28;45378;-74
2021/09/25 00:26:51;;;;;;;;;16.00;16.00;;;;;18.72;60.31;101358.72;5058686;28;45401;-75
2021/09/25 00:29:17;;;;;;;;;18.25;16.25;;;;;18.68;60.89;101355.13;5059068;28;45240;-74
2021/09/25 00:31:43;;;;;;;;;15.50;13.75;;;;;18.72;60.72;101362.22;5058339;28;45362;-74
2021/09/25 00:34:08;;;;;;;;;21.25;19.75;;;;;18.72;60.58;101362.22;5058110;28;45341;-74
2021/09/25 00:36:34;;;;;;;;;20.00;18.00;;;;;18.68;60.18;101359.50;5058388;28;45279;-74
2021/09/25 00:38:59;;;;;;;;;11.50;11.50;;;;;18.70;60.50;101363.91;5058289;28;45257;-74
2021/09/25 00:41:25;;;;;;;;;18.75;17.25;;;;;18.67;60.43;101365.59;5058143;28;45696;-74
2021/09/25 00:43:52;;;;;;;;;16.00;14.75;;;;;18.64;60.68;101365.53;5058467;28;45193;-75
2021/09/25 00:46:19;;;;;;;;;17.25;15.00;;;;;18.55;60.74;101354.00;5058460;28;45351;-74
2021/09/25 00:48:45;;;;;;;;;22.00;19.25;;;;;18.60;60.52;101366.34;5057830;28;45549;-74
2021/09/25 00:51:11;;;;;;;;;16.75;14.50;;;;;18.57;61.02;101356.69;5057751;28;45382;-74
2021/09/25 00:53:36;;;;;;;;;20.25;16.75;;;;;18.60;60.78;101364.59;5057986;28;45350;-74
2021/09/25 00:56:02;;;;;;;;;17.00;16.50;;;;;18.58;60.77;101373.28;5057950;28;45399;-74
2021/09/25 00:58:29;;;;;;;;;16.50;16.25;;;;;18.52;60.86;101368.78;5058112;28;45467;-74
2021/09/25 01:00:54;;;;;;;;;20.00;16.75;;;;;18.49;61.20;101372.25;5056335;28;45344;-74
2021/09/25 01:03:20;;;;;;;;;22.00;19.25;;;;;18.37;61.09;101351.88;5058227;28;45193;-73
2021/09/25 01:05:45;;;;;;;;;16.00;15.00;;;;;18.46;61.55;101363.44;5059308;28;45342;-73
2021/09/25 01:08:13;;;;;;;;;21.25;18.75;;;;;18.47;61.24;101355.59;5065678;28;45490;-74
2021/09/25 01:10:40;;;;;;;;;16.50;16.50;;;;;18.45;61.39;101356.41;5059349;28;45560;-74
2021/09/25 01:13:06;;;;;;;;;18.50;16.75;;;;;18.37;61.07;101345.75;5057904;28;45416;-73
2021/09/25 01:15:32;;;;;;;;;20.00;18.75;;;;;18.43;61.13;101361.59;5058419;28;45433;-73
2021/09/25 01:17:59;;;;;;;;;17.75;17.00;;;;;18.39;61.68;101367.66;5058206;28;45589;-74
2021/09/25 01:20:25;;;;;;;;;17.75;17.25;;;;;18.34;61.73;101356.16;5057545;28;45318;-73
2021/09/25 01:22:51;;;;;;;;;18.25;18.00;;;;;18.29;61.79;101353.44;5057904;28;45377;-73
2021/09/25 01:25:16;;;;;;;;;16.50;15.25;;;;;18.31;61.58;101361.34;5057663;28;45542;-73
2021/09/25 01:27:42;;;;;;;;;16.00;16.00;;;;;18.31;61.94;101351.75;5057959;28;45612;-74
2021/09/25 01:30:14;;;;;;;;;18.25;16.50;;;;;18.33;61.75;101352.69;5057284;28;45364;-77
2021/09/25 01:32:41;;;;;;;;;15.50;14.75;;;;;18.35;61.82;101350.06;5057552;28;45449;-75
2021/09/25 01:35:08;;;;;;;;;21.50;18.50;;;;;18.34;61.28;101349.22;5057404;28;45831;-73
2021/09/25 01:37:34;;;;;;;;;17.75;15.50;;;;;18.29;61.71;101336.84;5057431;28;45349;-76
2021/09/25 01:39:59;;;;;;;;;16.75;15.25;;;;;18.30;61.86;101349.97;5057116;28;46365;-73
2021/09/25 01:42:25;;;;;;;;;20.25;15.50;;;;;18.25;61.51;101342.03;5057187;28;45373;-73
2021/09/25 01:44:52;;;;;;;;;18.00;16.25;;;;;18.23;61.44;101342.84;5055410;28;45549;-73
2021/09/25 01:47:18;;;;;;;;;19.00;15.75;;;;;18.20;62.05;101343.63;5055583;28;45778;-73
2021/09/25 01:49:44;;;;;;;;;17.25;15.75;;;;;18.19;62.06;101338.38;5056374;28;45841;-75
2021/09/25 01:52:10;;;;;;;;;21.00;15.50;;;;;18.15;61.41;101336.53;5055070;28;45410;-74
2021/09/25 01:54:36;;;;;;;;;20.00;16.25;;;;;18.13;61.82;101333.00;5055145;28;45612;-73
2021/09/25 01:57:01;;;;;;;;;16.50;16.25;;;;;18.14;62.17;101333.03;5055190;28;45644;-74
2021/09/25 01:59:27;;;;;;;;;20.50;17.75;;;;;18.12;61.47;101326.00;5055848;28;45457;-74
2021/09/25 02:01:53;;;;;;;;;18.00;17.75;;;;;18.10;61.75;101320.72;5054203;28;45430;-74
2021/09/25 02:04:19;;;;;;;;;22.50;18.50;;;;;18.04;62.12;101329.31;5055571;28;45471;-73
2021/09/25 02:06:44;;;;;;;;;23.50;20.75;;;;;18.00;61.99;101321.34;5056737;28;45259;-73
2021/09/25 02:09:10;;;;;;;;;20.00;19.75;;;;;17.97;62.52;101323.94;5056686;28;46027;-74
2021/09/25 02:11:36;;;;;;;;;22.25;19.25;;;;;17.95;62.62;101321.22;5056079;28;45418;-74
2021/09/25 02:14:01;;;;;;;;;24.00;17.50;;;;;17.93;62.44;101312.44;5055522;28;45329;-73
2021/09/25 02:16:27;;;;;;;;;24.25;19.00;;;;;17.91;62.47;101312.41;5057148;28;45326;-74
2021/09/25 02:18:52;;;;;;;;;23.25;18.50;;;;;17.89;62.89;101308.88;5056421;28;45939;-74
2021/09/25 02:21:18;;;;;;;;;19.25;17.75;;;;;17.84;62.71;101293.91;5056830;28;45373;-73
2021/09/25 02:23:44;;;;;;;;;21.50;18.00;;;;;17.85;62.39;101301.81;5056944;28;45426;-74
2021/09/25 02:26:10;;;;;;;;;24.00;21.75;;;;;17.76;62.80;101293.75;5056696;28;45560;-74
2021/09/25 02:28:35;;;;;;;;;20.00;15.00;;;;;17.78;62.97;101316.50;5056079;28;46091;-73
2021/09/25 02:31:01;;;;;;;;;18.25;13.50;;;;;17.79;62.87;101309.50;5056296;28;45304;-75
2021/09/25 02:33:27;;;;;;;;;17.75;15.75;;;;;17.82;63.16;101301.72;5056902;28;45482;-73
2021/09/25 02:35:53;;;;;;;;;19.25;15.25;;;;;17.86;63.00;101307.91;5056846;28;45332;-73
2021/09/25 02:38:19;;;;;;;;;23.25;20.00;;;;;17.88;62.96;101307.09;5056663;28;46268;-74
2021/09/25 02:40:46;;;;;;;;;21.00;20.50;;;;;17.88;62.84;101309.72;5056537;28;45891;-75
2021/09/25 02:43:11;;;;;;;;;22.25;20.50;;;;;17.83;62.70;101298.25;5060753;28;45499;-74
2021/09/25 02:45:37;;;;;;;;;17.75;14.50;;;;;17.81;63.00;101315.69;5063093;28;45330;-75
2021/09/25 02:48:03;;;;;;;;;18.75;15.50;;;;;17.78;63.01;101313.88;5057657;28;45311;-72
2021/09/25 02:50:29;;;;;;;;;18.50;17.75;;;;;17.71;63.27;101301.47;5056686;28;45717;-73
2021/09/25 02:52:55;;;;;;;;;16.50;16.50;;;;;17.77;63.26;101300.72;5055786;28;45406;-74
2021/09/25 02:55:21;;;;;;;;;16.50;15.75;;;;;17.78;62.99;101299.88;5056985;28;45289;-75
2021/09/25 02:57:47;;;;;;;;;16.50;14.75;;;;;17.79;63.15;101296.41;5055084;28;45655;-73
2021/09/25 03:00:16;;;;;;;;;19.25;16.25;;;;;17.76;63.26;101297.25;5055947;28;45279;-73
2021/09/25 03:02:42;;;;;;;;;19.50;18.00;;;;;17.74;63.29;101290.19;5056463;28;45391;-73
2021/09/25 03:05:08;;;;;;;;;23.25;20.75;;;;;17.73;63.13;101299.78;5056148;28;45390;-74
2021/09/25 03:07:34;;;;;;;;;21.25;19.75;;;;;17.68;63.32;101287.44;5056016;28;45387;-74
2021/09/25 03:10:00;;;;;;;;;22.00;19.75;;;;;17.70;63.29;101290.97;5055423;28;45355;-73
2021/09/25 03:12:25;;;;;;;;;24.25;21.25;;;;;17.68;63.08;101293.56;5056126;28;45374;-74
2021/09/25 03:14:51;;;;;;;;;22.75;20.75;;;;;17.68;63.26;101292.66;5056771;28;45539;-74
2021/09/25 03:17:17;;;;;;;;;21.00;18.50;;;;;17.67;63.26;101290.88;5055869;28;45397;-73
2021/09/25 03:19:46;;;;;;;;;22.25;21.25;;;;;17.64;63.51;101291.72;5055858;28;45292;-74
2021/09/25 03:22:12;;;;;;;;;26.00;21.50;;;;;17.67;63.34;101290.88;5055572;28;45346;-73
2021/09/25 03:24:37;;;;;;;;;26.75;23.75;;;;;17.66;63.11;101296.97;5073088;27;45527;-73
2021/09/25 03:27:03;;;;;;;;;23.50;22.25;;;;;17.66;62.93;101296.97;5058978;28;45786;-74
2021/09/25 03:29:29;;;;;;;;;31.75;24.75;;;;;17.69;63.25;101294.44;5059295;28;45390;-73
2021/09/25 03:31:54;;;;;;;;;28.50;26.00;;;;;17.67;63.21;101290.88;5062641;28;45313;-74
2021/09/25 03:34:20;;;;;;;;;30.25;22.50;;;;;17.63;63.05;101285.59;5066011;28;45644;-74
2021/09/25 03:36:45;;;;;;;;;22.50;19.75;;;;;17.64;62.96;101289.09;5062572;28;45972;-74
2021/09/25 03:39:11;;;;;;;;;25.50;22.00;;;;;17.61;63.41;101282.06;5062082;28;45224;-74
2021/09/25 03:41:36;;;;;;;;;20.50;18.75;;;;;17.65;63.36;101293.47;5061038;28;45745;-74
2021/09/25 03:44:03;;;;;;;;;28.75;22.25;;;;;17.57;63.04;101285.44;5059369;28;45482;-72
2021/09/25 03:46:29;;;;;;;;;20.25;18.25;;;;;17.63;63.12;101292.56;5059259;28;46010;-73
2021/09/25 03:48:55;;;;;;;;;23.75;21.25;;;;;17.58;62.97;101286.34;5058982;28;45487;-74
2021/09/25 03:51:21;;;;;;;;;25.75;24.75;;;;;17.56;63.55;101288.91;5058263;28;45371;-73
2021/09/25 03:53:46;;;;;;;;;22.50;22.00;;;;;17.56;63.13;101288.91;5059820;28;45289;-73
2021/09/25 03:56:13;;;;;;;;;24.25;24.25;;;;;17.51;63.43;101281.78;5058746;28;45896;-73
2021/09/25 03:58:39;;;;;;;;;23.25;21.25;;;;;17.51;63.26;101285.31;5058946;28;45332;-74
2021/09/25 04:01:10;;;;;;;;;22.75;19.50;;;;;17.49;63.50;101293.09;5058760;28;45259;-74
2021/09/25 04:03:36;;;;;;;;;22.25;19.50;;;;;17.35;63.63;101257.88;5059188;28;45329;-74
2021/09/25 04:06:01;;;;;;;;;21.50;18.50;;;;;17.51;63.50;101280.06;5058433;28;45346;-77
2021/09/25 04:08:29;;;;;;;;;12.00;12.00;;;;;17.46;63.47;101274.72;5058414;28;45327;-76
2021/09/25 04:10:54;;;;;;;;;16.50;15.50;;;;;17.49;63.41;101282.63;5040351;28;45316;-75
2021/09/25 04:13:20;;;;;;;;;24.25;21.75;;;;;17.47;63.66;101281.75;5057859;28;45492;-73
2021/09/25 04:15:46;;;;;;;;;20.75;18.75;;;;;17.42;63.60;101279.84;5058750;28;46541;-73
2021/09/25 04:18:11;;;;;;;;;21.00;18.00;;;;;17.39;63.67;101285.00;5058508;28;46009;-75
2021/09/25 04:20:38;;;;;;;;;20.25;20.25;;;;;17.39;63.72;101277.16;5060772;28;45240;-73
2021/09/25 04:23:04;;;;;;;;;18.75;17.75;;;;;17.30;63.84;101268.25;5065061;28;45225;-73
2021/09/25 04:25:32;;;;;;;;;21.25;19.00;;;;;17.35;64.04;101272.69;5061292;28;45502;-75
2021/09/25 04:28:00;;;;;;;;;21.75;18.75;;;;;17.24;64.07;101262.84;5059304;28;45339;-76
2021/09/25 04:30:26;;;;;;;;;21.50;19.75;;;;;17.30;63.86;101273.47;5059453;28;45366;-74
2021/09/25 04:32:51;;;;;;;;;22.75;18.00;;;;;17.27;63.99;101265.53;5058968;28;45674;-73
2021/09/25 04:35:18;;;;;;;;;23.25;20.75;;;;;17.32;63.94;101270.88;5058438;28;45457;-73
2021/09/25 04:37:44;;;;;;;;;23.75;22.00;;;;;17.32;64.20;101270.88;5058532;28;45841;-75
2021/09/25 04:40:10;;;;;;;;;21.50;20.00;;;;;17.28;64.25;101256.84;5058292;28;45447;-74
2021/09/25 04:42:36;;;;;;;;;19.75;18.00;;;;;17.34;63.99;101258.72;5058789;28;45481;-73
2021/09/25 04:45:03;;;;;;;;;19.75;17.00;;;;;17.38;63.88;101259.69;5058185;28;45459;-76
2021/09/25 04:47:29;;;;;;;;;22.75;21.75;;;;;17.39;63.82;101259.69;5058698;28;45374;-79
2021/09/25 04:49:54;;;;;;;;;21.50;18.00;;;;;17.38;63.86;101254.44;5058477;28;45153;-77
2021/09/25 04:52:20;;;;;;;;;19.75;18.25;;;;;17.31;63.53;101254.31;5058944;28;45370;-74
2021/09/25 04:54:45;;;;;;;;;16.75;16.25;;;;;17.31;63.90;101256.03;5058066;28;45319;-75
2021/09/25 04:57:11;;;;;;;;;21.75;19.75;;;;;17.28;64.03;101261.19;5057716;28;45344;-73
2021/09/25 04:59:37;;;;;;;;;15.00;13.00;;;;;17.29;64.13;101273.41;5058279;28;45251;-73
2021/09/25 05:02:03;;;;;;;;;19.25;17.00;;;;;17.28;63.92;101275.16;5057543;28;45316;-73
2021/09/25 05:04:28;;;;;;;;;19.50;18.25;;;;;17.20;64.03;101257.50;5057864;28;45443;-74
2021/09/25 05:06:54;;;;;;;;;19.50;16.25;;;;;17.17;63.88;101253.94;5057953;28;45324;-74
2021/09/25 05:09:22;;;;;;;;;23.25;19.00;;;;;17.21;63.70;101264.50;5062787;28;45351;-74
2021/09/25 05:11:48;;;;;;;;;20.50;17.50;;;;;17.22;63.78;101269.78;5064935;28;45476;-75
2021/09/25 05:14:13;;;;;;;;;23.25;18.50;;;;;17.19;63.98;101272.31;5059557;28;45408;-74
2021/09/25 05:16:39;;;;;;;;;19.50;15.00;;;;;17.14;63.95;101269.59;5057719;28;45419;-73
2021/09/25 05:19:05;;;;;;;;;20.75;20.75;;;;;17.14;64.24;101260.84;5057832;28;45354;-74
2021/09/25 05:21:30;;;;;;;;;20.00;18.00;;;;;17.12;64.29;101259.91;5057769;28;45544;-74
2021/09/25 05:23:56;;;;;;;;;23.75;19.75;;;;;17.15;64.49;101270.47;5056265;28;45632;-74
2021/09/25 05:26:21;;;;;;;;;23.50;18.50;;;;;17.11;64.10;101259.03;5057732;28;45687;-73
2021/09/25 05:28:47;;;;;;;;;20.75;18.00;;;;;17.15;64.43;101265.22;5058081;28;45427;-74
2021/09/25 05:31:13;;;;;;;;;19.50;17.75;;;;;17.15;64.32;101263.53;5055846;28;45555;-74
2021/09/25 05:33:39;;;;;;;;;23.75;22.50;;;;;17.07;64.08;101251.09;5056686;28;46435;-74
2021/09/25 05:36:06;;;;;;;;;23.00;19.00;;;;;17.17;64.35;101259.19;5057203;28;46012;-76
2021/09/25 05:38:32;;;;;;;;;24.00;22.50;;;;;17.16;64.03;101248.69;5057489;28;45321;-74
2021/09/25 05:40:57;;;;;;;;;18.25;14.00;;;;;17.18;64.04;101252.22;5055900;28;45710;-74
2021/09/25 05:43:23;;;;;;;;;20.75;17.00;;;;;17.15;63.83;101260.91;5056706;28;46056;-75
2021/09/25 05:45:48;;;;;;;;;21.00;19.25;;;;;17.13;64.12;101259.97;5057650;28;45463;-74
2021/09/25 05:48:14;;;;;;;;;20.00;17.75;;;;;17.09;64.26;101257.25;5056075;28;45378;-74
2021/09/25 05:50:41;;;;;;;;;18.75;17.50;;;;;17.00;63.96;101253.56;5057155;28;45272;-76
2021/09/25 05:53:07;;;;;;;;;20.75;16.50;;;;;17.07;64.19;101270.25;5056995;28;46033;-73
2021/09/25 05:55:32;;;;;;;;;24.25;19.00;;;;;17.02;64.14;101258.81;5052734;28;45312;-77
2021/09/25 05:58:01;;;;;;;;;19.00;16.75;;;;;17.00;64.45;101256.16;5040693;28;45229;-73
2021/09/25 06:00:28;;;;;;;;;22.25;21.00;;;;;16.99;64.32;101253.50;5043315;28;45399;-73
2021/09/25 06:02:54;;;;;;;;;21.00;19.50;;;;;17.04;64.29;101253.59;5037921;28;45747;-74
2021/09/25 06:05:20;;;;;;;;;22.00;18.25;;;;;16.97;64.17;101261.31;5037612;28;45376;-73
2021/09/25 06:07:45;;;;;;;;;23.00;21.25;;;;;16.94;64.10;101262.97;5050835;28;45479;-75
2021/09/25 06:10:11;;;;;;;;;25.00;21.25;;;;;16.95;64.12;101268.22;5056744;28;45488;-74
2021/09/25 06:12:37;;;;;;;;;30.25;22.75;;;;;16.96;63.98;101269.09;5056773;28;46259;-74
2021/09/25 06:15:03;;;;;;;;;21.50;21.00;;;;;16.98;64.33;101272.66;5072136;28;45416;-74
2021/09/25 06:17:29;;;;;;;;;21.75;17.75;;;;;16.89;64.28;101254.97;5055795;28;45392;-74
2021/09/25 06:19:54;;;;;;;;;21.00;20.75;;;;;16.91;64.20;101255.88;5056911;28;45599;-74
2021/09/25 06:22:20;;;;;;;;;21.00;20.25;;;;;16.98;64.18;101276.16;5056766;28;45953;-74
2021/09/25 06:24:46;;;;;;;;;24.25;21.00;;;;;17.03;64.19;101278.91;5055074;28;45509;-79
2021/09/25 06:27:11;;;;;;;;;24.25;20.00;;;;;17.10;64.32;101279.94;5056806;28;45351;-75
2021/09/25 06:29:37;;;;;;;;;20.00;18.50;;;;;17.08;63.99;101290.34;5057108;28;45587;-75
2021/09/25 06:32:03;;;;;;;;;19.75;19.75;;;;;17.02;63.80;101270.16;5055748;28;45517;-75
2021/09/25 06:34:28;;;;;;;;;27.25;24.50;;;;;17.05;63.96;101281.53;5056419;28;45413;-75
2021/09/25 06:36:54;;;;;;;;;27.75;22.25;;;;;16.99;63.66;101262.25;5053944;28;45838;-76
2021/09/25 06:39:22;;;;;;;;;24.75;23.00;;;;;16.98;64.03;101268.31;5053675;28;45505;-76
2021/09/25 06:41:48;;;;;;;;;21.25;18.50;;;;;17.11;63.96;101279.09;5053854;28;46827;-76
2021/09/25 06:44:14;;;;;;;;;21.75;21.25;;;;;17.08;64.09;101268.56;5055002;28;45398;-77
2021/09/25 06:46:39;;;;;;;;;21.50;20.50;;;;;17.04;63.84;101258.84;5063406;28;45486;-76
2021/09/25 06:49:05;;;;;;;;;24.25;23.75;;;;;17.14;63.99;101271.31;5060226;28;45347;-76
2021/09/25 06:51:31;;;;;;;;;25.00;21.25;;;;;17.16;63.82;101270.53;5056334;28;45888;-76
2021/09/25 06:53:56;;;;;;;;;23.50;21.00;;;;;17.14;63.65;101266.06;5057224;28;45306;-76
2021/09/25 06:56:23;;;;;;;;;26.00;20.75;;;;;17.15;63.37;101263.53;5056059;28;45442;-75
2021/09/25 06:58:49;;;;;;;;;27.75;22.25;;;;;17.14;63.91;101269.59;5055795;28;45447;-87
2021/09/25 07:01:15;;;;;;;;;20.25;19.75;;;;;17.17;63.81;101272.25;5056172;28;46446;-83
2021/09/25 07:03:40;;;;;;;;;27.00;25.75;;;;;17.20;63.85;101260.13;5055787;28;45188;-79
2021/09/25 07:06:06;;;;;;;;;29.50;25.00;;;;;17.20;63.81;101257.50;5060467;28;45331;-83
2021/09/25 07:08:32;;;;;;;;;27.50;25.25;;;;;17.21;63.87;101261.88;5057515;28;45617;-75
2021/09/25 07:10:57;;;;;;;;;25.75;23.25;;;;;17.11;63.72;101245.97;5055010;28;45427;-76
2021/09/25 07:13:23;;;;;;;;;27.75;22.00;;;;;17.14;63.59;101248.66;5056121;28;45354;-76
2021/09/25 07:15:49;;;;;;;;;29.25;25.75;;;;;17.14;63.83;101242.53;5056665;28;45347;-80
2021/09/25 07:18:15;;;;;;;;;31.00;25.25;;;;;17.10;63.87;101227.63;5057150;28;45499;-78
2021/09/25 07:20:43;;;;;;;;;29.00;25.75;;;;;17.13;64.03;101235.53;5056811;28;46471;-79
2021/09/25 07:23:09;;;;;;;;;25.75;22.00;;;;;17.14;64.11;101248.66;5055435;28;45895;-82
2021/09/25 07:25:36;;;;;;;;;28.75;25.50;;;;;17.11;64.02;101242.47;5056954;28;45266;-82
2021/09/25 07:28:04;;;;;;;;;26.75;20.50;;;;;17.12;64.20;101241.59;5062856;28;45518;-87
2021/09/25 07:30:31;;;;;;;;;22.50;21.50;;;;;17.19;64.22;101243.53;5064534;27;46376;-83
2021/09/25 07:32:58;;;;;;;;;22.50;21.00;;;;;17.13;64.09;101228.56;5061677;28;45595;-77
2021/09/25 07:35:25;;;;;;;;;27.50;25.50;;;;;17.27;63.88;101247.22;5061249;28;45315;-77
2021/09/25 07:37:51;;;;;;;;;28.50;25.00;;;;;17.29;63.72;101244.63;5057059;28;45622;-77
2021/09/25 07:40:17;;;;;;;;;23.75;23.75;;;;;17.29;63.83;101242.00;5054752;28;46178;-79
2021/09/25 07:42:43;;;;;;;;;27.25;25.25;;;;;17.39;63.93;101243.13;5055876;28;45365;-75
2021/09/25 07:45:10;;;;;;;;;26.75;23.25;;;;;17.12;63.95;101192.78;5058822;27;45379;-84
2021/09/25 07:47:36;;;;;;;;;28.25;23.50;;;;;17.41;63.81;101233.59;5056109;28;45371;-89
2021/09/25 07:50:04;;;;;;;;;27.75;24.50;;;;;17.39;64.03;101246.63;5055731;28;45484;-79
2021/09/25 07:52:32;;;;;;;;;27.50;22.75;;;;;17.49;64.22;101247.72;5056134;28;45342;-80
2021/09/25 07:54:58;;;;;;;;;34.50;31.75;;;;;17.39;63.40;101214.34;5055935;28;45315;-76
2021/09/25 07:57:23;;;;;;;;;28.75;23.25;;;;;17.56;63.69;101241.78;5055662;28;45593;-80
2021/09/25 07:59:49;;;;;;;;;40.25;32.75;;;;;17.52;63.96;101228.59;5053575;28;46382;-75
2021/09/25 08:02:14;;;;;;;;;55.50;44.25;;;;;17.52;63.61;101229.50;5053192;28;45575;-77
2021/09/25 08:04:40;;;;;;;;;37.00;30.50;;;;;17.58;63.61;101221.75;5054873;28;45418;-78
2021/09/25 08:07:06;;;;;;;;;35.25;31.75;;;;;17.62;64.00;101236.69;5055345;28;45925;-78
2021/09/25 08:09:31;;;;;;;;;38.00;32.00;;;;;17.69;63.76;101245.59;5054738;28;45678;-77
2021/09/25 08:11:57;;;;;;;;;27.25;23.25;;;;;17.71;63.92;101236.00;5057858;28;45346;-79
2021/09/25 08:14:22;;;;;;;;;38.75;32.25;;;;;17.69;63.86;101227.25;5058010;28;45410;-76
2021/09/25 08:16:51;;;;;;;;;28.50;23.50;;;;;17.83;63.57;101248.50;5058546;28;45434;-78
2021/09/25 08:19:17;;;;;;;;;37.75;34.25;;;;;17.83;63.44;101231.88;5058584;28;46976;-75
2021/09/25 08:21:43;;;;;;;;;29.50;27.50;;;;;17.92;63.49;101235.59;5062701;28;46047;-75
2021/09/25 08:24:09;;;;;;;;;34.00;30.00;;;;;17.93;63.37;101232.13;5063227;28;45576;-78
2021/09/25 08:26:34;;;;;;;;;34.50;31.25;;;;;17.93;63.21;101213.78;5059004;28;45342;-75
2021/09/25 08:29:00;;;;;;;;;38.00;32.75;;;;;17.95;62.87;101212.09;5058518;28;46330;-75
2021/09/25 08:31:26;;;;;;;;;32.50;29.50;;;;;18.03;63.17;101220.13;5075183;28;45422;-75
2021/09/25 08:33:52;;;;;;;;;33.75;31.50;;;;;18.01;63.11;101210.47;5078240;27;45380;-75
2021/09/25 08:36:18;;;;;;;;;34.75;31.25;;;;;18.07;62.90;101226.34;5063456;28;45335;-76
2021/09/25 08:38:43;;;;;;;;;36.25;32.25;;;;;18.14;62.75;101240.44;5064308;28;45962;-80
2021/09/25 08:41:09;;;;;;;;;38.00;32.75;;;;;18.19;62.91;101239.69;5070551;27;45318;-81
2021/09/25 08:43:35;;;;;;;;;34.00;31.00;;;;;18.16;62.95;101218.66;5056061;28;45284;-76
2021/09/25 08:46:05;;;;;;;;;38.75;31.00;;;;;18.23;62.83;101223.16;5057779;28;45616;-81
2021/09/25 08:48:32;;;;;;;;;39.00;33.50;;;;;18.28;62.64;101220.63;5056335;28;45562;-75
2021/09/25 08:50:59;;;;;;;;;32.25;28.75;;;;;18.35;62.39;101222.53;5057009;28;45346;-75
2021/09/25 08:53:25;;;;;;;;;30.00;25.00;;;;;18.34;62.43;101214.63;5057787;28;45255;-75
2021/09/25 08:55:51;;;;;;;;;30.00;27.25;;;;;18.40;62.47;101213.00;5056340;28;45377;-74
2021/09/25 08:58:17;;;;;;;;;38.00;27.75;;;;;18.34;61.73;101191.03;5057840;28;45805;-75
2021/09/25 09:00:47;;;;;;;;;27.50;25.50;;;;;18.50;61.84;101211.44;5056720;28;45411;-75
2021/09/25 09:03:36;;;;;;;;;36.75;31.00;;;;;18.51;61.91;101207.97;5057018;28;45500;-74
2021/09/25 09:06:08;;;;;;;;;27.50;26.00;;;;;18.58;62.24;101208.06;5043410;28;45705;-76
2021/09/25 09:08:34;;;;;;;;;25.75;23.75;;;;;18.54;61.92;101194.03;5057932;28;46060;-74
2021/09/25 09:11:00;;;;;;;;;28.50;27.50;;;;;18.59;61.60;101208.09;5057098;28;45930;-75
2021/09/25 09:13:27;;;;;;;;;27.75;26.75;;;;;18.61;61.87;101203.75;5058109;28;45805;-77
2021/09/25 09:15:53;;;;;;;;;34.25;25.50;;;;;18.64;61.75;101219.56;5057327;28;45367;-76
2021/09/25 09:18:22;;;;;;;;;32.50;26.75;;;;;18.66;61.53;101222.19;5056265;28;45468;-76
2021/09/25 09:21:11;;;;;;;;;29.75;24.75;;;;;18.69;61.29;101215.25;5057086;28;46058;-77
2021/09/25 09:23:40;;;;;;;;;32.50;28.25;;;;;18.71;61.64;101212.69;5055371;28;45765;-73
2021/09/25 09:26:07;;;;;;;;;31.50;29.00;;;;;18.68;61.39;101210.00;5056400;28;45374;-74
2021/09/25 09:28:36;;;;;;;;;31.50;28.50;;;;;18.77;61.04;101225.03;5057039;28;46403;-75
2021/09/25 09:31:04;;;;;;;;;33.00;30.75;;;;;18.79;60.97;101225.94;5055006;28;46106;-76
2021/09/25 09:33:35;;;;;;;;;28.00;26.00;;;;;18.76;61.14;101218.00;5058079;28;45343;-76
2021/09/25 09:36:23;;;;;;;;;27.00;26.00;;;;;18.85;61.27;101220.78;5057332;28;45260;-75
2021/09/25 09:39:01;;;;;;;;;35.25;31.25;;;;;18.91;60.72;101220.00;5056548;28;45508;-74
2021/09/25 09:41:38;;;;;;;;;28.25;26.75;;;;;18.91;60.26;101217.38;5055816;28;45832;-73
2021/09/25 09:44:09;;;;;;;;;36.25;30.00;;;;;18.94;60.32;101220.09;5053979;28;45545;-74
2021/09/25 09:46:47;;;;;;;;;23.50;21.25;;;;;18.96;61.08;101221.88;5054997;28;45411;-77
2021/09/25 09:49:44;;;;;;;;;33.25;29.00;;;;;18.95;60.44;101209.63;5059084;28;46441;-80
2021/09/25 09:52:14;;;;;;;;;31.00;28.50;;;;;19.00;60.23;101202.72;5043443;28;45395;-74
2021/09/25 09:54:44;;;;;;;;;28.25;28.25;;;;;19.01;59.97;101195.72;5056419;28;45493;-77
2021/09/25 09:57:18;;;;;;;;;29.75;26.25;;;;;19.02;60.36;101187.88;5054551;28;45515;-78
2021/09/25 09:59:46;;;;;;;;;28.50;27.00;;;;;19.06;60.01;101187.91;5053873;28;47930;-78
2021/09/25 10:02:12;;;;;;;;;28.50;27.50;;;;;19.11;60.67;101186.25;5057543;28;45322;-78
2021/09/25 10:04:38;;;;;;;;;31.25;22.50;;;;;19.05;60.35;101176.56;5056510;28;45445;-81
2021/09/25 10:07:06;;;;;;;;;27.00;26.00;;;;;19.14;60.03;101187.19;5056702;28;45338;-80
2021/09/25 10:09:35;;;;;;;;;32.25;25.50;;;;;19.18;60.52;101175.00;5056814;28;45936;-79
2021/09/25 10:12:05;;;;;;;;;25.00;24.00;;;;;19.23;60.30;101186.44;5054623;28;45798;-77
2021/09/25 10:14:36;;;;;;;;;31.75;26.50;;;;;19.30;59.86;101190.94;5056644;28;45444;-78
2021/09/25 10:17:05;;;;;;;;;34.25;31.50;;;;;19.35;59.67;101196.25;5056435;28;45339;-78
2021/09/25 10:19:32;;;;;;;;;33.50;28.25;;;;;19.38;59.66;101187.53;5056483;28;45438;-80
2021/09/25 10:22:08;;;;;;;;;26.25;24.00;;;;;19.43;59.76;101193.75;5056371;28;45454;-82
2021/09/25 10:24:55;;;;;;;;;26.00;24.75;;;;;19.42;59.82;101181.47;5039046;28;45529;-80
2021/09/25 10:27:22;;;;;;;;;31.75;26.25;;;;;19.47;59.81;101185.91;5057750;28;45237;-79
2021/09/25 10:29:51;;;;;;;;;33.00;31.50;;;;;19.52;59.47;101192.97;5056835;28;45347;-83
2021/09/25 10:32:26;;;;;;;;;35.25;31.50;;;;;19.56;60.11;101187.78;5056945;28;45933;-77
2021/09/25 10:35:02;;;;;;;;;30.50;29.50;;;;;19.60;60.08;101184.34;5055730;28;45380;-74
2021/09/25 10:37:33;;;;;;;;;34.00;30.25;;;;;19.63;59.74;101181.75;5056114;28;45548;-74
2021/09/25 10:39:58;;;;;;;;;30.50;30.50;;;;;19.70;59.67;101190.63;5053747;28;46093;-80
2021/09/25 10:42:40;;;;;;;;;30.50;28.00;;;;;19.75;59.08;101182.78;5054962;28;45503;-76
2021/09/25 10:45:12;;;;;;;;;30.50;27.25;;;;;19.82;58.66;101189.88;5070739;27;45319;-75
2021/09/25 10:47:38;;;;;;;;;35.00;28.75;;;;;19.89;59.17;101185.63;5055836;28;45339;-77
2021/09/25 10:50:12;;;;;;;;;31.75;28.00;;;;;19.94;59.14;101176.03;5055446;28;45331;-75
2021/09/25 10:53:07;;;;;;;;;33.50;29.75;;;;;20.03;58.49;101170.00;5055600;28;45477;-74
2021/09/25 10:55:36;;;;;;;;;35.25;30.50;;;;;20.10;58.64;101177.09;5042899;28;45460;-76
2021/09/25 10:58:12;;;;;;;;;31.25;26.75;;;;;20.18;58.21;101171.91;5035975;28;45546;-74
2021/09/25 11:01:15;;;;;;;;;26.25;22.25;;;;;20.27;58.22;101166.75;5033103;28;46303;-75
2021/09/25 11:03:41;;;;;;;;;30.75;26.50;;;;;20.33;57.70;101152.78;4993087;28;45389;-74
2021/09/25 11:06:10;;;;;;;;;27.75;24.25;;;;;20.38;57.75;101151.09;5026943;28;45323;-74
2021/09/25 11:08:38;;;;;;;;;31.00;28.00;;;;;20.45;57.23;101146.78;5035874;28;45388;-73
2021/09/25 11:11:09;;;;;;;;;30.50;26.75;;;;;20.53;56.91;101145.97;5033938;28;47718;-74